sensor_id;sensor_type;location;lat;lon;timestamp;P1;durP1;ratioP1;P2;durP2;ratioP2
28074;SDS011;15385;51.088;6.572;2023-04-03T00:00:12;10.38;;;6.18;;
28074;SDS011;15385;51.088;6.572;2023-04-03T00:02:43;9.75;;;5.57;;
28074;SDS011;15385;51.088;6.572;2023-04-03T00:05:14;6.60;;;5.28;;
28074;SDS011;15385;51.088;6.572;2023-04-03T00:07:45;7.55;;;5.47;;
28074;SDS011;15385;51.088;6.572;2023-04-03T00:10:16;8.73;;;5.80;;
28074;SDS011;15385;51.088;6.572;2023-04-03T00:12:46;10.38;;;5.82;;
28074;SDS011;15385;51.088;6.572;2023-04-03T00:15:17;8.05;;;5.22;;
28074;SDS011;15385;51.088;6.572;2023-04-03T00:17:48;8.52;;;5.68;;
28074;SDS011;15385;51.088;6.572;2023-04-03T00:20:18;9.48;;;5.65;;
28074;SDS011;15385;51.088;6.572;2023-04-03T00:22:49;6.97;;;5.10;;
28074;SDS011;15385;51.088;6.572;2023-04-03T00:25:20;8.48;;;5.45;;
28074;SDS011;15385;51.088;6.572;2023-04-03T00:27:51;7.72;;;5.50;;
28074;SDS011;15385;51.088;6.572;2023-04-03T00:30:22;8.85;;;5.40;;
28074;SDS011;15385;51.088;6.572;2023-04-03T00:32:53;7.95;;;5.72;;
28074;SDS011;15385;51.088;6.572;2023-04-03T00:35:24;7.32;;;5.32;;
28074;SDS011;15385;51.088;6.572;2023-04-03T00:37:55;9.90;;;5.43;;
28074;SDS011;15385;51.088;6.572;2023-04-03T00:40:26;9.27;;;5.78;;
28074;SDS011;15385;51.088;6.572;2023-04-03T00:42:58;7.60;;;5.45;;
28074;SDS011;15385;51.088;6.572;2023-04-03T00:48:07;9.40;;;5.85;;
28074;SDS011;15385;51.088;6.572;2023-04-03T00:50:42;6.60;;;5.40;;
28074;SDS011;15385;51.088;6.572;2023-04-03T00:53:16;9.10;;;5.55;;
28074;SDS011;15385;51.088;6.572;2023-04-03T00:55:52;8.23;;;5.63;;
28074;SDS011;15385;51.088;6.572;2023-04-03T00:58:32;6.30;;;5.32;;
28074;SDS011;15385;51.088;6.572;2023-04-03T01:01:06;8.85;;;6.05;;
28074;SDS011;15385;51.088;6.572;2023-04-03T01:03:40;9.88;;;5.40;;
28074;SDS011;15385;51.088;6.572;2023-04-03T01:06:11;9.65;;;5.53;;
28074;SDS011;15385;51.088;6.572;2023-04-03T01:08:43;5.57;;;4.82;;
28074;SDS011;15385;51.088;6.572;2023-04-03T01:11:14;8.25;;;5.15;;
28074;SDS011;15385;51.088;6.572;2023-04-03T01:13:45;7.72;;;5.57;;
28074;SDS011;15385;51.088;6.572;2023-04-03T01:16:16;8.93;;;5.72;;
28074;SDS011;15385;51.088;6.572;2023-04-03T01:18:46;9.02;;;6.22;;
28074;SDS011;15385;51.088;6.572;2023-04-03T01:21:27;9.50;;;6.38;;
28074;SDS011;15385;51.088;6.572;2023-04-03T01:24:36;8.82;;;6.10;;
28074;SDS011;15385;51.088;6.572;2023-04-03T01:27:09;8.85;;;6.13;;
28074;SDS011;15385;51.088;6.572;2023-04-03T01:29:40;9.77;;;6.43;;
28074;SDS011;15385;51.088;6.572;2023-04-03T01:32:13;9.50;;;6.20;;
28074;SDS011;15385;51.088;6.572;2023-04-03T01:34:43;8.52;;;6.30;;
28074;SDS011;15385;51.088;6.572;2023-04-03T01:37:14;10.38;;;6.28;;
28074;SDS011;15385;51.088;6.572;2023-04-03T01:39:45;7.18;;;5.80;;
28074;SDS011;15385;51.088;6.572;2023-04-03T01:42:15;8.60;;;6.00;;
28074;SDS011;15385;51.088;6.572;2023-04-03T01:44:46;9.68;;;5.80;;
28074;SDS011;15385;51.088;6.572;2023-04-03T01:47:17;10.43;;;5.40;;
28074;SDS011;15385;51.088;6.572;2023-04-03T01:49:47;8.30;;;6.10;;
28074;SDS011;15385;51.088;6.572;2023-04-03T01:52:18;10.23;;;5.68;;
28074;SDS011;15385;51.088;6.572;2023-04-03T01:54:48;9.88;;;6.28;;
28074;SDS011;15385;51.088;6.572;2023-04-03T01:57:20;8.80;;;5.65;;
28074;SDS011;15385;51.088;6.572;2023-04-03T01:59:51;6.72;;;4.97;;
28074;SDS011;15385;51.088;6.572;2023-04-03T02:02:21;7.90;;;5.63;;
28074;SDS011;15385;51.088;6.572;2023-04-03T02:04:52;7.85;;;5.32;;
28074;SDS011;15385;51.088;6.572;2023-04-03T02:07:22;8.43;;;5.38;;
28074;SDS011;15385;51.088;6.572;2023-04-03T02:09:53;10.25;;;5.60;;
28074;SDS011;15385;51.088;6.572;2023-04-03T02:12:23;8.27;;;5.30;;
28074;SDS011;15385;51.088;6.572;2023-04-03T02:14:54;7.68;;;5.13;;
28074;SDS011;15385;51.088;6.572;2023-04-03T02:17:25;8.05;;;5.63;;
28074;SDS011;15385;51.088;6.572;2023-04-03T02:19:55;7.65;;;5.45;;
28074;SDS011;15385;51.088;6.572;2023-04-03T02:22:26;8.98;;;5.68;;
28074;SDS011;15385;51.088;6.572;2023-04-03T02:24:56;8.23;;;5.28;;
28074;SDS011;15385;51.088;6.572;2023-04-03T02:27:27;7.28;;;5.50;;
28074;SDS011;15385;51.088;6.572;2023-04-03T02:29:58;7.03;;;5.30;;
28074;SDS011;15385;51.088;6.572;2023-04-03T02:32:28;9.98;;;6.43;;
28074;SDS011;15385;51.088;6.572;2023-04-03T02:34:59;9.20;;;5.90;;
28074;SDS011;15385;51.088;6.572;2023-04-03T02:37:30;7.50;;;5.60;;
28074;SDS011;15385;51.088;6.572;2023-04-03T02:40:00;9.55;;;6.18;;
28074;SDS011;15385;51.088;6.572;2023-04-03T02:42:31;6.95;;;5.38;;
28074;SDS011;15385;51.088;6.572;2023-04-03T02:45:02;7.90;;;5.45;;
28074;SDS011;15385;51.088;6.572;2023-04-03T02:47:33;7.75;;;5.38;;
28074;SDS011;15385;51.088;6.572;2023-04-03T02:50:04;8.05;;;5.80;;
28074;SDS011;15385;51.088;6.572;2023-04-03T02:52:34;7.18;;;5.20;;
28074;SDS011;15385;51.088;6.572;2023-04-03T02:55:05;9.77;;;6.03;;
28074;SDS011;15385;51.088;6.572;2023-04-03T02:57:36;9.68;;;5.97;;
28074;SDS011;15385;51.088;6.572;2023-04-03T03:00:07;7.88;;;6.05;;
28074;SDS011;15385;51.088;6.572;2023-04-03T03:02:38;9.70;;;5.85;;
28074;SDS011;15385;51.088;6.572;2023-04-03T03:05:09;7.78;;;5.95;;
28074;SDS011;15385;51.088;6.572;2023-04-03T03:07:40;7.05;;;6.18;;
28074;SDS011;15385;51.088;6.572;2023-04-03T03:10:10;10.65;;;6.20;;
28074;SDS011;15385;51.088;6.572;2023-04-03T03:12:41;10.20;;;5.63;;
28074;SDS011;15385;51.088;6.572;2023-04-03T03:15:12;8.15;;;5.20;;
28074;SDS011;15385;51.088;6.572;2023-04-03T03:17:43;5.95;;;5.28;;
28074;SDS011;15385;51.088;6.572;2023-04-03T03:20:13;9.02;;;6.38;;
28074;SDS011;15385;51.088;6.572;2023-04-03T03:22:45;7.53;;;5.90;;
28074;SDS011;15385;51.088;6.572;2023-04-03T03:25:15;11.63;;;6.22;;
28074;SDS011;15385;51.088;6.572;2023-04-03T03:27:46;11.02;;;5.80;;
28074;SDS011;15385;51.088;6.572;2023-04-03T03:30:16;9.20;;;6.47;;
28074;SDS011;15385;51.088;6.572;2023-04-03T03:32:47;8.70;;;6.22;;
28074;SDS011;15385;51.088;6.572;2023-04-03T03:35:18;10.77;;;6.30;;
28074;SDS011;15385;51.088;6.572;2023-04-03T03:37:48;9.05;;;6.00;;
28074;SDS011;15385;51.088;6.572;2023-04-03T03:40:19;8.02;;;5.53;;
28074;SDS011;15385;51.088;6.572;2023-04-03T03:42:50;10.25;;;6.60;;
28074;SDS011;15385;51.088;6.572;2023-04-03T03:45:20;10.63;;;6.43;;
28074;SDS011;15385;51.088;6.572;2023-04-03T03:47:51;9.10;;;6.13;;
28074;SDS011;15385;51.088;6.572;2023-04-03T03:50:21;9.90;;;6.22;;
28074;SDS011;15385;51.088;6.572;2023-04-03T03:52:52;8.68;;;6.45;;
28074;SDS011;15385;51.088;6.572;2023-04-03T03:55:23;9.02;;;6.10;;
28074;SDS011;15385;51.088;6.572;2023-04-03T03:57:53;9.60;;;6.55;;
28074;SDS011;15385;51.088;6.572;2023-04-03T04:00:24;7.53;;;5.55;;
28074;SDS011;15385;51.088;6.572;2023-04-03T04:02:55;9.27;;;6.88;;
28074;SDS011;15385;51.088;6.572;2023-04-03T04:05:26;9.85;;;6.65;;
28074;SDS011;15385;51.088;6.572;2023-04-03T04:07:56;7.35;;;5.38;;
28074;SDS011;15385;51.088;6.572;2023-04-03T04:10:27;7.60;;;6.10;;
28074;SDS011;15385;51.088;6.572;2023-04-03T04:12:57;7.57;;;6.22;;
28074;SDS011;15385;51.088;6.572;2023-04-03T04:15:28;8.70;;;5.97;;
28074;SDS011;15385;51.088;6.572;2023-04-03T04:17:59;9.80;;;5.95;;
28074;SDS011;15385;51.088;6.572;2023-04-03T04:20:29;8.05;;;5.97;;
28074;SDS011;15385;51.088;6.572;2023-04-03T04:23:00;9.82;;;5.97;;
28074;SDS011;15385;51.088;6.572;2023-04-03T04:25:31;9.25;;;5.82;;
28074;SDS011;15385;51.088;6.572;2023-04-03T04:28:02;7.90;;;6.00;;
28074;SDS011;15385;51.088;6.572;2023-04-03T04:30:33;8.40;;;5.60;;
28074;SDS011;15385;51.088;6.572;2023-04-03T04:33:04;8.25;;;5.95;;
28074;SDS011;15385;51.088;6.572;2023-04-03T04:35:35;6.75;;;5.10;;
28074;SDS011;15385;51.088;6.572;2023-04-03T04:38:06;8.75;;;5.20;;
28074;SDS011;15385;51.088;6.572;2023-04-03T04:40:38;7.07;;;4.40;;
28074;SDS011;15385;51.088;6.572;2023-04-03T04:43:09;7.80;;;4.28;;
28074;SDS011;15385;51.088;6.572;2023-04-03T04:45:41;7.80;;;4.75;;
28074;SDS011;15385;51.088;6.572;2023-04-03T04:48:11;6.95;;;4.22;;
28074;SDS011;15385;51.088;6.572;2023-04-03T04:50:42;7.10;;;4.43;;
28074;SDS011;15385;51.088;6.572;2023-04-03T04:53:13;6.25;;;4.07;;
28074;SDS011;15385;51.088;6.572;2023-04-03T04:55:43;8.20;;;4.07;;
28074;SDS011;15385;51.088;6.572;2023-04-03T04:58:14;8.82;;;4.57;;
28074;SDS011;15385;51.088;6.572;2023-04-03T05:00:45;7.93;;;4.25;;
28074;SDS011;15385;51.088;6.572;2023-04-03T05:03:15;7.40;;;4.20;;
28074;SDS011;15385;51.088;6.572;2023-04-03T05:05:46;11.80;;;4.80;;
28074;SDS011;15385;51.088;6.572;2023-04-03T05:08:16;8.52;;;4.88;;
28074;SDS011;15385;51.088;6.572;2023-04-03T05:10:47;6.10;;;4.15;;
28074;SDS011;15385;51.088;6.572;2023-04-03T05:13:18;6.47;;;4.57;;
28074;SDS011;15385;51.088;6.572;2023-04-03T05:15:49;7.57;;;4.85;;
28074;SDS011;15385;51.088;6.572;2023-04-03T05:18:20;8.65;;;5.00;;
28074;SDS011;15385;51.088;6.572;2023-04-03T05:20:50;6.53;;;4.28;;
28074;SDS011;15385;51.088;6.572;2023-04-03T05:23:21;9.00;;;4.80;;
28074;SDS011;15385;51.088;6.572;2023-04-03T05:25:52;7.90;;;5.05;;
28074;SDS011;15385;51.088;6.572;2023-04-03T05:28:23;9.23;;;4.45;;
28074;SDS011;15385;51.088;6.572;2023-04-03T05:30:54;7.45;;;5.05;;
28074;SDS011;15385;51.088;6.572;2023-04-03T05:33:26;8.20;;;5.00;;
28074;SDS011;15385;51.088;6.572;2023-04-03T05:36:01;6.80;;;4.40;;
28074;SDS011;15385;51.088;6.572;2023-04-03T05:38:33;6.43;;;4.38;;
28074;SDS011;15385;51.088;6.572;2023-04-03T05:41:04;8.00;;;4.28;;
28074;SDS011;15385;51.088;6.572;2023-04-03T05:43:35;8.32;;;4.45;;
28074;SDS011;15385;51.088;6.572;2023-04-03T05:46:15;6.90;;;4.60;;
28074;SDS011;15385;51.088;6.572;2023-04-03T05:48:47;8.65;;;4.63;;
28074;SDS011;15385;51.088;6.572;2023-04-03T05:51:18;9.70;;;4.78;;
28074;SDS011;15385;51.088;6.572;2023-04-03T05:53:54;9.82;;;4.60;;
28074;SDS011;15385;51.088;6.572;2023-04-03T05:56:30;7.60;;;4.75;;
28074;SDS011;15385;51.088;6.572;2023-04-03T05:59:01;9.75;;;4.60;;
28074;SDS011;15385;51.088;6.572;2023-04-03T06:01:31;8.05;;;4.00;;
28074;SDS011;15385;51.088;6.572;2023-04-03T06:04:02;7.40;;;4.00;;
28074;SDS011;15385;51.088;6.572;2023-04-03T06:06:43;9.32;;;3.92;;
28074;SDS011;15385;51.088;6.572;2023-04-03T06:09:16;7.45;;;3.50;;
28074;SDS011;15385;51.088;6.572;2023-04-03T06:11:48;8.35;;;3.88;;
28074;SDS011;15385;51.088;6.572;2023-04-03T06:14:19;10.23;;;5.15;;
28074;SDS011;15385;51.088;6.572;2023-04-03T06:16:49;13.02;;;3.83;;
28074;SDS011;15385;51.088;6.572;2023-04-03T06:19:20;8.00;;;4.30;;
28074;SDS011;15385;51.088;6.572;2023-04-03T06:21:50;8.10;;;4.28;;
28074;SDS011;15385;51.088;6.572;2023-04-03T06:24:21;6.63;;;3.90;;
28074;SDS011;15385;51.088;6.572;2023-04-03T06:26:54;5.35;;;3.53;;
28074;SDS011;15385;51.088;6.572;2023-04-03T06:29:24;5.88;;;4.07;;
28074;SDS011;15385;51.088;6.572;2023-04-03T06:31:55;8.85;;;3.95;;
28074;SDS011;15385;51.088;6.572;2023-04-03T06:34:26;10.48;;;4.25;;
28074;SDS011;15385;51.088;6.572;2023-04-03T06:36:57;10.02;;;3.70;;
28074;SDS011;15385;51.088;6.572;2023-04-03T06:39:28;10.27;;;4.53;;
28074;SDS011;15385;51.088;6.572;2023-04-03T06:41:59;7.60;;;3.63;;
28074;SDS011;15385;51.088;6.572;2023-04-03T06:44:30;6.78;;;3.50;;
28074;SDS011;15385;51.088;6.572;2023-04-03T06:47:00;8.35;;;4.00;;
28074;SDS011;15385;51.088;6.572;2023-04-03T06:49:31;5.60;;;3.13;;
28074;SDS011;15385;51.088;6.572;2023-04-03T06:52:02;5.18;;;3.05;;
28074;SDS011;15385;51.088;6.572;2023-04-03T06:54:32;8.85;;;3.15;;
28074;SDS011;15385;51.088;6.572;2023-04-03T06:57:03;8.18;;;3.97;;
28074;SDS011;15385;51.088;6.572;2023-04-03T06:59:34;10.88;;;3.88;;
28074;SDS011;15385;51.088;6.572;2023-04-03T07:02:06;12.25;;;3.67;;
28074;SDS011;15385;51.088;6.572;2023-04-03T07:04:37;9.65;;;3.40;;
28074;SDS011;15385;51.088;6.572;2023-04-03T07:07:08;6.63;;;3.20;;
28074;SDS011;15385;51.088;6.572;2023-04-03T07:09:38;6.45;;;3.10;;
28074;SDS011;15385;51.088;6.572;2023-04-03T07:12:09;5.72;;;3.33;;
28074;SDS011;15385;51.088;6.572;2023-04-03T07:14:40;5.53;;;2.83;;
28074;SDS011;15385;51.088;6.572;2023-04-03T07:17:13;7.53;;;3.33;;
28074;SDS011;15385;51.088;6.572;2023-04-03T07:19:44;10.45;;;3.20;;
28074;SDS011;15385;51.088;6.572;2023-04-03T07:22:15;12.77;;;3.42;;
28074;SDS011;15385;51.088;6.572;2023-04-03T07:24:46;10.20;;;3.15;;
28074;SDS011;15385;51.088;6.572;2023-04-03T07:27:17;6.22;;;3.22;;
28074;SDS011;15385;51.088;6.572;2023-04-03T07:29:48;7.22;;;3.30;;
28074;SDS011;15385;51.088;6.572;2023-04-03T07:32:18;8.95;;;3.55;;
28074;SDS011;15385;51.088;6.572;2023-04-03T07:34:49;8.95;;;2.80;;
28074;SDS011;15385;51.088;6.572;2023-04-03T07:37:20;6.80;;;2.88;;
28074;SDS011;15385;51.088;6.572;2023-04-03T07:39:50;8.48;;;3.58;;
28074;SDS011;15385;51.088;6.572;2023-04-03T07:42:21;7.82;;;2.75;;
28074;SDS011;15385;51.088;6.572;2023-04-03T07:44:52;7.00;;;2.88;;
28074;SDS011;15385;51.088;6.572;2023-04-03T07:47:22;4.95;;;2.53;;
28074;SDS011;15385;51.088;6.572;2023-04-03T07:49:53;7.13;;;2.60;;
28074;SDS011;15385;51.088;6.572;2023-04-03T07:52:24;5.55;;;2.53;;
28074;SDS011;15385;51.088;6.572;2023-04-03T07:54:55;8.43;;;2.47;;
28074;SDS011;15385;51.088;6.572;2023-04-03T07:57:26;7.18;;;2.33;;
28074;SDS011;15385;51.088;6.572;2023-04-03T07:59:56;7.82;;;2.90;;
28074;SDS011;15385;51.088;6.572;2023-04-03T08:02:27;5.82;;;2.55;;
28074;SDS011;15385;51.088;6.572;2023-04-03T08:04:58;6.15;;;2.22;;
28074;SDS011;15385;51.088;6.572;2023-04-03T08:07:28;6.30;;;2.22;;
28074;SDS011;15385;51.088;6.572;2023-04-03T08:09:59;5.65;;;2.30;;
28074;SDS011;15385;51.088;6.572;2023-04-03T08:12:30;5.75;;;2.13;;
28074;SDS011;15385;51.088;6.572;2023-04-03T08:15:02;5.50;;;2.20;;
28074;SDS011;15385;51.088;6.572;2023-04-03T08:17:33;6.68;;;2.00;;
28074;SDS011;15385;51.088;6.572;2023-04-03T08:20:04;8.55;;;2.13;;
28074;SDS011;15385;51.088;6.572;2023-04-03T08:22:36;4.07;;;1.92;;
28074;SDS011;15385;51.088;6.572;2023-04-03T08:25:07;5.88;;;2.40;;
28074;SDS011;15385;51.088;6.572;2023-04-03T08:27:38;4.85;;;2.20;;
28074;SDS011;15385;51.088;6.572;2023-04-03T08:30:09;6.13;;;2.40;;
28074;SDS011;15385;51.088;6.572;2023-04-03T08:32:40;4.75;;;2.00;;
28074;SDS011;15385;51.088;6.572;2023-04-03T08:35:14;10.10;;;2.15;;
28074;SDS011;15385;51.088;6.572;2023-04-03T08:37:45;5.40;;;2.00;;
28074;SDS011;15385;51.088;6.572;2023-04-03T08:40:16;6.38;;;1.85;;
28074;SDS011;15385;51.088;6.572;2023-04-03T08:45:45;5.00;;;1.70;;
28074;SDS011;15385;51.088;6.572;2023-04-03T08:48:24;5.60;;;1.58;;
28074;SDS011;15385;51.088;6.572;2023-04-03T08:51:00;5.47;;;1.42;;
28074;SDS011;15385;51.088;6.572;2023-04-03T08:53:43;3.65;;;1.52;;
28074;SDS011;15385;51.088;6.572;2023-04-03T08:56:21;5.00;;;1.60;;
28074;SDS011;15385;51.088;6.572;2023-04-03T08:58:56;4.93;;;1.52;;
28074;SDS011;15385;51.088;6.572;2023-04-03T09:01:37;4.72;;;1.30;;
28074;SDS011;15385;51.088;6.572;2023-04-03T09:04:13;2.88;;;1.40;;
28074;SDS011;15385;51.088;6.572;2023-04-03T09:06:48;3.58;;;1.38;;
28074;SDS011;15385;51.088;6.572;2023-04-03T09:09:34;4.05;;;1.33;;
28074;SDS011;15385;51.088;6.572;2023-04-03T09:15:10;3.13;;;1.20;;
28074;SDS011;15385;51.088;6.572;2023-04-03T09:24:01;2.55;;;1.10;;
28074;SDS011;15385;51.088;6.572;2023-04-03T09:26:39;2.95;;;1.13;;
28074;SDS011;15385;51.088;6.572;2023-04-03T09:29:17;6.85;;;1.40;;
28074;SDS011;15385;51.088;6.572;2023-04-03T09:31:59;2.45;;;1.30;;
28074;SDS011;15385;51.088;6.572;2023-04-03T09:34:35;2.03;;;1.00;;
28074;SDS011;15385;51.088;6.572;2023-04-03T09:37:06;2.30;;;1.05;;
28074;SDS011;15385;51.088;6.572;2023-04-03T09:39:53;3.42;;;1.10;;
28074;SDS011;15385;51.088;6.572;2023-04-03T09:42:26;1.88;;;1.10;;
28074;SDS011;15385;51.088;6.572;2023-04-03T09:44:58;3.05;;;1.10;;
28074;SDS011;15385;51.088;6.572;2023-04-03T09:47:35;2.00;;;1.23;;
28074;SDS011;15385;51.088;6.572;2023-04-03T09:52:44;3.30;;;1.27;;
28074;SDS011;15385;51.088;6.572;2023-04-03T09:55:20;2.95;;;1.30;;
28074;SDS011;15385;51.088;6.572;2023-04-03T09:57:58;1.98;;;0.90;;
28074;SDS011;15385;51.088;6.572;2023-04-03T10:00:31;3.70;;;1.02;;
28074;SDS011;15385;51.088;6.572;2023-04-03T10:03:05;2.13;;;0.82;;
28074;SDS011;15385;51.088;6.572;2023-04-03T10:05:52;73.20;;;13.57;;
28074;SDS011;15385;51.088;6.572;2023-04-03T10:08:26;3.78;;;1.48;;
28074;SDS011;15385;51.088;6.572;2023-04-03T10:11:08;3.78;;;1.20;;
28074;SDS011;15385;51.088;6.572;2023-04-03T10:13:57;2.72;;;1.15;;
28074;SDS011;15385;51.088;6.572;2023-04-03T10:16:46;2.35;;;1.02;;
28074;SDS011;15385;51.088;6.572;2023-04-03T10:19:31;4.63;;;1.10;;
28074;SDS011;15385;51.088;6.572;2023-04-03T10:24:57;5.82;;;1.25;;
28074;SDS011;15385;51.088;6.572;2023-04-03T10:30:34;1.83;;;1.10;;
28074;SDS011;15385;51.088;6.572;2023-04-03T10:36:20;4.20;;;1.48;;
28074;SDS011;15385;51.088;6.572;2023-04-03T10:39:20;3.13;;;1.40;;
28074;SDS011;15385;51.088;6.572;2023-04-03T10:42:24;3.03;;;1.20;;
28074;SDS011;15385;51.088;6.572;2023-04-03T10:51:08;3.28;;;1.23;;
28074;SDS011;15385;51.088;6.572;2023-04-03T10:53:43;2.60;;;1.10;;
28074;SDS011;15385;51.088;6.572;2023-04-03T10:56:30;5.20;;;1.50;;
28074;SDS011;15385;51.088;6.572;2023-04-03T11:01:59;2.88;;;1.25;;
28074;SDS011;15385;51.088;6.572;2023-04-03T11:04:35;2.10;;;1.10;;
28074;SDS011;15385;51.088;6.572;2023-04-03T11:07:23;4.47;;;1.30;;
28074;SDS011;15385;51.088;6.572;2023-04-03T11:10:44;3.28;;;1.30;;
28074;SDS011;15385;51.088;6.572;2023-04-03T11:13:06;2.83;;;1.20;;
28074;SDS011;15385;51.088;6.572;2023-04-03T11:15:43;2.33;;;1.27;;
28074;SDS011;15385;51.088;6.572;2023-04-03T11:18:23;3.80;;;1.35;;
28074;SDS011;15385;51.088;6.572;2023-04-03T11:23:40;3.90;;;1.20;;
28074;SDS011;15385;51.088;6.572;2023-04-03T11:26:12;3.15;;;1.50;;
28074;SDS011;15385;51.088;6.572;2023-04-03T11:28:45;4.25;;;1.17;;
28074;SDS011;15385;51.088;6.572;2023-04-03T11:34:30;1.60;;;1.10;;
28074;SDS011;15385;51.088;6.572;2023-04-03T11:37:12;3.15;;;1.23;;
28074;SDS011;15385;51.088;6.572;2023-04-03T11:39:54;3.90;;;1.30;;
28074;SDS011;15385;51.088;6.572;2023-04-03T11:42:34;2.72;;;1.35;;
28074;SDS011;15385;51.088;6.572;2023-04-03T11:48:02;1.70;;;1.00;;
28074;SDS011;15385;51.088;6.572;2023-04-03T12:16:29;5.45;;;1.50;;
28074;SDS011;15385;51.088;6.572;2023-04-03T12:24:33;4.50;;;1.00;;
28074;SDS011;15385;51.088;6.572;2023-04-03T12:38:15;4.25;;;1.33;;
28074;SDS011;15385;51.088;6.572;2023-04-03T12:41:13;2.80;;;1.23;;
28074;SDS011;15385;51.088;6.572;2023-04-03T12:46:50;3.15;;;1.20;;
28074;SDS011;15385;51.088;6.572;2023-04-03T12:49:26;2.40;;;1.23;;
28074;SDS011;15385;51.088;6.572;2023-04-03T12:52:19;2.40;;;1.20;;
28074;SDS011;15385;51.088;6.572;2023-04-03T12:54:53;3.50;;;1.02;;
28074;SDS011;15385;51.088;6.572;2023-04-03T12:57:25;2.28;;;1.17;;
28074;SDS011;15385;51.088;6.572;2023-04-03T12:59:57;2.83;;;1.40;;
28074;SDS011;15385;51.088;6.572;2023-04-03T13:02:29;2.03;;;1.00;;
28074;SDS011;15385;51.088;6.572;2023-04-03T13:05:08;2.53;;;0.93;;
28074;SDS011;15385;51.088;6.572;2023-04-03T13:07:48;1.70;;;1.00;;
28074;SDS011;15385;51.088;6.572;2023-04-03T13:10:59;3.38;;;1.00;;
28074;SDS011;15385;51.088;6.572;2023-04-03T13:13:33;1.65;;;0.95;;
28074;SDS011;15385;51.088;6.572;2023-04-03T13:16:08;3.38;;;1.00;;
28074;SDS011;15385;51.088;6.572;2023-04-03T13:18:41;2.83;;;1.05;;
28074;SDS011;15385;51.088;6.572;2023-04-03T13:21:15;2.65;;;1.10;;
28074;SDS011;15385;51.088;6.572;2023-04-03T13:23:50;2.72;;;0.90;;
28074;SDS011;15385;51.088;6.572;2023-04-03T13:26:25;3.15;;;1.10;;
28074;SDS011;15385;51.088;6.572;2023-04-03T13:29:02;3.10;;;1.00;;
28074;SDS011;15385;51.088;6.572;2023-04-03T13:31:36;1.58;;;1.00;;
28074;SDS011;15385;51.088;6.572;2023-04-03T13:34:12;4.20;;;1.30;;
28074;SDS011;15385;51.088;6.572;2023-04-03T13:39:24;2.88;;;0.90;;
28074;SDS011;15385;51.088;6.572;2023-04-03T13:42:22;2.15;;;1.00;;
28074;SDS011;15385;51.088;6.572;2023-04-03T13:48:16;2.13;;;1.05;;
28074;SDS011;15385;51.088;6.572;2023-04-03T13:50:51;1.52;;;1.00;;
28074;SDS011;15385;51.088;6.572;2023-04-03T13:53:40;1.88;;;1.00;;
28074;SDS011;15385;51.088;6.572;2023-04-03T13:56:19;1.33;;;1.00;;
28074;SDS011;15385;51.088;6.572;2023-04-03T13:59:01;1.70;;;1.05;;
28074;SDS011;15385;51.088;6.572;2023-04-03T14:01:41;1.60;;;0.90;;
28074;SDS011;15385;51.088;6.572;2023-04-03T14:07:18;5.68;;;1.30;;
28074;SDS011;15385;51.088;6.572;2023-04-03T14:09:51;2.13;;;1.27;;
28074;SDS011;15385;51.088;6.572;2023-04-03T14:15:00;3.92;;;1.20;;
28074;SDS011;15385;51.088;6.572;2023-04-03T14:17:31;3.08;;;0.95;;
28074;SDS011;15385;51.088;6.572;2023-04-03T14:20:02;2.30;;;1.05;;
28074;SDS011;15385;51.088;6.572;2023-04-03T14:22:33;3.65;;;1.10;;
28074;SDS011;15385;51.088;6.572;2023-04-03T14:25:05;3.05;;;1.13;;
28074;SDS011;15385;51.088;6.572;2023-04-03T14:27:37;2.17;;;1.00;;
28074;SDS011;15385;51.088;6.572;2023-04-03T14:32:54;1.95;;;1.20;;
28074;SDS011;15385;51.088;6.572;2023-04-03T14:35:26;2.65;;;1.20;;
28074;SDS011;15385;51.088;6.572;2023-04-03T14:37:57;4.82;;;1.38;;
28074;SDS011;15385;51.088;6.572;2023-04-03T14:40:27;2.47;;;1.30;;
28074;SDS011;15385;51.088;6.572;2023-04-03T14:42:58;2.58;;;1.40;;
28074;SDS011;15385;51.088;6.572;2023-04-03T14:45:29;5.22;;;1.10;;
28074;SDS011;15385;51.088;6.572;2023-04-03T14:47:59;1.77;;;1.08;;
28074;SDS011;15385;51.088;6.572;2023-04-03T14:50:30;1.67;;;1.20;;
28074;SDS011;15385;51.088;6.572;2023-04-03T14:53:01;2.80;;;1.17;;
28074;SDS011;15385;51.088;6.572;2023-04-03T14:55:31;4.15;;;1.20;;
28074;SDS011;15385;51.088;6.572;2023-04-03T14:58:02;2.30;;;1.10;;
28074;SDS011;15385;51.088;6.572;2023-04-03T15:00:33;3.03;;;1.38;;
28074;SDS011;15385;51.088;6.572;2023-04-03T15:03:03;3.58;;;1.45;;
28074;SDS011;15385;51.088;6.572;2023-04-03T15:05:35;3.10;;;1.20;;
28074;SDS011;15385;51.088;6.572;2023-04-03T15:08:26;3.05;;;1.42;;
28074;SDS011;15385;51.088;6.572;2023-04-03T15:10:59;2.22;;;1.15;;
28074;SDS011;15385;51.088;6.572;2023-04-03T15:13:30;2.75;;;1.42;;
28074;SDS011;15385;51.088;6.572;2023-04-03T15:16:01;3.05;;;1.38;;
28074;SDS011;15385;51.088;6.572;2023-04-03T15:18:35;3.58;;;1.30;;
28074;SDS011;15385;51.088;6.572;2023-04-03T15:21:08;4.47;;;1.20;;
28074;SDS011;15385;51.088;6.572;2023-04-03T15:23:38;3.70;;;1.40;;
28074;SDS011;15385;51.088;6.572;2023-04-03T15:26:09;5.00;;;1.35;;
28074;SDS011;15385;51.088;6.572;2023-04-03T15:28:40;3.65;;;1.45;;
28074;SDS011;15385;51.088;6.572;2023-04-03T15:31:12;2.63;;;1.20;;
28074;SDS011;15385;51.088;6.572;2023-04-03T15:33:43;3.78;;;1.55;;
28074;SDS011;15385;51.088;6.572;2023-04-03T15:36:13;3.45;;;1.30;;
28074;SDS011;15385;51.088;6.572;2023-04-03T15:38:44;3.63;;;1.10;;
28074;SDS011;15385;51.088;6.572;2023-04-03T15:41:15;3.80;;;1.30;;
28074;SDS011;15385;51.088;6.572;2023-04-03T15:43:45;1.35;;;0.80;;
28074;SDS011;15385;51.088;6.572;2023-04-03T15:46:16;3.80;;;1.67;;
28074;SDS011;15385;51.088;6.572;2023-04-03T15:48:47;3.90;;;1.27;;
28074;SDS011;15385;51.088;6.572;2023-04-03T15:51:19;2.75;;;1.10;;
28074;SDS011;15385;51.088;6.572;2023-04-03T15:53:49;3.67;;;1.20;;
28074;SDS011;15385;51.088;6.572;2023-04-03T15:56:20;4.07;;;1.30;;
28074;SDS011;15385;51.088;6.572;2023-04-03T15:58:51;3.42;;;1.20;;
28074;SDS011;15385;51.088;6.572;2023-04-03T16:01:21;3.45;;;1.17;;
28074;SDS011;15385;51.088;6.572;2023-04-03T16:03:52;2.55;;;1.30;;
28074;SDS011;15385;51.088;6.572;2023-04-03T16:06:23;4.07;;;1.52;;
28074;SDS011;15385;51.088;6.572;2023-04-03T16:08:55;1.73;;;1.00;;
28074;SDS011;15385;51.088;6.572;2023-04-03T16:11:27;2.20;;;1.15;;
28074;SDS011;15385;51.088;6.572;2023-04-03T16:13:58;3.92;;;1.48;;
28074;SDS011;15385;51.088;6.572;2023-04-03T16:16:29;2.78;;;1.20;;
28074;SDS011;15385;51.088;6.572;2023-04-03T16:19:00;3.72;;;1.23;;
28074;SDS011;15385;51.088;6.572;2023-04-03T16:21:31;2.65;;;1.30;;
28074;SDS011;15385;51.088;6.572;2023-04-03T16:24:02;3.80;;;1.38;;
28074;SDS011;15385;51.088;6.572;2023-04-03T16:26:33;2.15;;;1.30;;
28074;SDS011;15385;51.088;6.572;2023-04-03T16:29:04;5.97;;;1.50;;
28074;SDS011;15385;51.088;6.572;2023-04-03T16:31:35;3.13;;;1.30;;
28074;SDS011;15385;51.088;6.572;2023-04-03T16:34:05;4.45;;;1.55;;
28074;SDS011;15385;51.088;6.572;2023-04-03T16:36:36;4.80;;;1.40;;
28074;SDS011;15385;51.088;6.572;2023-04-03T16:39:07;4.30;;;1.25;;
28074;SDS011;15385;51.088;6.572;2023-04-03T16:41:39;3.72;;;1.38;;
28074;SDS011;15385;51.088;6.572;2023-04-03T16:44:10;4.88;;;1.38;;
28074;SDS011;15385;51.088;6.572;2023-04-03T16:46:41;4.68;;;1.10;;
28074;SDS011;15385;51.088;6.572;2023-04-03T16:49:12;3.17;;;1.30;;
28074;SDS011;15385;51.088;6.572;2023-04-03T16:51:42;5.45;;;1.42;;
28074;SDS011;15385;51.088;6.572;2023-04-03T16:54:13;1.88;;;0.85;;
28074;SDS011;15385;51.088;6.572;2023-04-03T16:56:44;3.65;;;1.17;;
28074;SDS011;15385;51.088;6.572;2023-04-03T16:59:14;2.58;;;1.20;;
28074;SDS011;15385;51.088;6.572;2023-04-03T17:01:45;1.88;;;0.98;;
28074;SDS011;15385;51.088;6.572;2023-04-03T17:04:16;3.47;;;1.58;;